Hudgins, Virginia
Current Conditions -  °F | °C
As of 8:15 AM on Wednesday 22 Oct 2014 (Local Time) from KW75 Reporting Station
Overcast Overcast  
Wind Chill: 13°   Ceiling: 1200
Heat Index: 13°   Visibility: 10mi
Dew Point: 11°   Wind: 17mph
Humidity: 88%   Direction: 330°NNW
Pressure: 29.82"   Gusts: 23mph
Location:  37.47°N, 76.33°W
Report Text: KW75 221215Z AUTO 33015G20KT 10SM OVC012 13/11 A2982 RMK AO1 T01270107
Loading
Personal Weather Stations






























Interactive Weather Map
Tropical Storm Tracking
New forecast layout! Learn more

10-Day Weather Forecast

Advertisements
Track Severe Weather on mobile